createdAt,value
2022-09-21T00:01:39.366Z,1.53
2022-09-21T00:04:07.868Z,1.30
2022-09-21T00:06:37.322Z,1.50
2022-09-21T00:09:08.217Z,1.60
2022-09-21T00:11:38.181Z,1.70
2022-09-21T00:14:10.587Z,1.70
2022-09-21T00:16:39.842Z,1.70
2022-09-21T00:19:08.261Z,1.60
2022-09-21T00:21:38.153Z,1.67
2022-09-21T00:24:07.517Z,1.80
2022-09-21T00:26:37.329Z,1.60
2022-09-21T00:29:06.932Z,1.60
2022-09-21T00:31:35.599Z,1.50
2022-09-21T00:34:07.743Z,1.80
2022-09-21T00:36:36.380Z,1.63
2022-09-21T00:39:05.542Z,1.77
2022-09-21T00:41:36.954Z,1.70
2022-09-21T00:44:32.211Z,1.70
2022-09-21T00:47:08.708Z,1.80
2022-09-21T00:49:38.065Z,1.50
2022-09-21T00:52:08.727Z,1.67
2022-09-21T00:54:43.514Z,1.60
2022-09-21T00:57:13.691Z,1.60
2022-09-21T00:59:44.365Z,1.80
2022-09-21T01:02:13.166Z,1.50
2022-09-21T01:04:41.411Z,1.77
2022-09-21T01:07:18.533Z,1.40
2022-09-21T01:09:51.738Z,1.50
2022-09-21T01:12:39.688Z,1.80
2022-09-21T01:15:22.595Z,1.40
2022-09-21T01:18:00.560Z,1.80
2022-09-21T01:20:57.613Z,1.60
2022-09-21T01:23:47.011Z,1.83
2022-09-21T01:26:32.835Z,1.70
2022-09-21T01:29:21.319Z,1.53
2022-09-21T01:31:56.538Z,1.73
2022-09-21T01:34:32.065Z,1.37
2022-09-21T01:37:07.106Z,1.50
2022-09-21T01:39:37.063Z,1.50
2022-09-21T01:42:08.532Z,1.33
2022-09-21T01:44:41.123Z,1.73
2022-09-21T01:47:13.005Z,1.57
2022-09-21T01:49:46.648Z,1.67
2022-09-21T01:52:20.919Z,1.60
2022-09-21T01:54:55.046Z,1.40
2022-09-21T01:57:30.666Z,1.50
2022-09-21T02:00:02.659Z,1.67
2022-09-21T02:02:38.310Z,1.43
2022-09-21T02:05:08.141Z,1.63
2022-09-21T02:07:39.401Z,1.43
2022-09-21T02:10:11.059Z,1.43
2022-09-21T02:12:39.726Z,1.60
2022-09-21T02:15:11.333Z,1.80
2022-09-21T02:17:54.750Z,1.47
2022-09-21T02:20:29.866Z,1.80
2022-09-21T02:23:07.713Z,1.77
2022-09-21T02:25:48.215Z,1.47
2022-09-21T02:28:29.996Z,1.87
2022-09-21T02:31:08.984Z,1.47
2022-09-21T02:33:49.334Z,2.00
2022-09-21T02:36:26.472Z,1.83
2022-09-21T02:39:05.156Z,1.80
2022-09-21T02:41:47.676Z,1.70
2022-09-21T02:44:24.665Z,1.73
2022-09-21T02:46:59.261Z,1.70
2022-09-21T02:49:33.750Z,1.50
2022-09-21T02:52:07.058Z,1.80
2022-09-21T02:54:37.029Z,2.00
2022-09-21T02:57:07.285Z,1.67
2022-09-21T02:59:36.027Z,1.40
2022-09-21T03:02:07.041Z,1.50
2022-09-21T03:04:35.539Z,1.57
2022-09-21T03:07:03.787Z,1.57
2022-09-21T03:09:32.044Z,1.60
2022-09-21T03:12:00.277Z,1.30
2022-09-21T03:14:28.538Z,1.83
2022-09-21T03:16:56.908Z,1.70
2022-09-21T03:19:26.838Z,2.17
2022-09-21T03:21:55.614Z,1.80
2022-09-21T03:24:37.750Z,2.03
2022-09-21T03:27:06.213Z,1.80
2022-09-21T03:29:34.486Z,1.70
2022-09-21T03:32:03.583Z,1.30
2022-09-21T03:34:34.364Z,1.60
2022-09-21T03:37:03.074Z,1.80
2022-09-21T03:39:31.823Z,1.60
2022-09-21T03:42:00.466Z,1.50
2022-09-21T03:44:29.501Z,1.70
2022-09-21T03:46:58.029Z,1.50
2022-09-21T03:49:26.290Z,1.77
2022-09-21T03:51:56.191Z,1.87
2022-09-21T03:54:24.671Z,1.73
2022-09-21T03:56:53.116Z,1.90
2022-09-21T03:59:21.585Z,2.63
2022-09-21T04:01:49.939Z,2.50
2022-09-21T04:04:18.167Z,2.30
2022-09-21T04:06:47.040Z,2.30
2022-09-21T04:09:16.614Z,2.10
2022-09-21T04:11:46.699Z,1.90
2022-09-21T04:14:15.232Z,2.30
2022-09-21T04:16:43.492Z,2.00
2022-09-21T04:19:11.731Z,1.90
2022-09-21T04:21:40.011Z,2.17
2022-09-21T04:24:08.555Z,2.10
2022-09-21T04:26:38.399Z,2.10
2022-09-21T04:29:07.288Z,2.30
2022-09-21T04:31:35.904Z,2.90
2022-09-21T04:34:04.127Z,2.97
2022-09-21T04:36:36.538Z,3.87
2022-09-21T04:39:05.891Z,2.80
2022-09-21T04:41:34.294Z,2.73
2022-09-21T04:44:04.254Z,5.23
2022-09-21T04:46:32.583Z,2.50
2022-09-21T04:49:00.918Z,7.03
2022-09-21T04:51:29.181Z,9.23
2022-09-21T04:53:57.439Z,4.20
2022-09-21T04:56:25.625Z,8.23
2022-09-21T04:58:53.941Z,4.60
2022-09-21T05:01:23.742Z,3.57
2022-09-21T05:03:52.003Z,3.80
2022-09-21T05:06:20.241Z,3.77
2022-09-21T05:09:05.966Z,5.07
2022-09-21T05:11:34.201Z,3.50
2022-09-21T05:14:02.441Z,2.60
2022-09-21T05:16:32.104Z,3.93
2022-09-21T05:19:00.366Z,3.10
2022-09-21T05:21:28.859Z,2.70
2022-09-21T05:23:57.445Z,1.97
2022-09-21T05:26:26.156Z,3.60
2022-09-21T05:28:55.399Z,4.93
2022-09-21T05:31:39.393Z,4.57
2022-09-21T05:34:27.769Z,3.90
2022-09-21T05:37:03.822Z,2.80
2022-09-21T05:39:32.896Z,1.93
2022-09-21T05:42:02.462Z,2.47
2022-09-21T05:44:31.385Z,3.73
2022-09-21T05:47:10.177Z,2.93
2022-09-21T05:49:51.286Z,2.40
2022-09-21T05:52:31.532Z,2.40
2022-09-21T05:55:44.360Z,2.07
2022-09-21T05:58:29.533Z,2.17
2022-09-21T06:01:16.119Z,2.83
2022-09-21T06:03:48.760Z,2.97
2022-09-21T06:06:22.296Z,2.40
2022-09-21T06:08:51.139Z,2.47
2022-09-21T06:11:19.927Z,3.33
2022-09-21T06:13:48.173Z,3.47
2022-09-21T06:16:16.421Z,3.60
2022-09-21T06:18:46.135Z,3.27
2022-09-21T06:21:14.380Z,3.20
2022-09-21T06:23:42.708Z,3.57
2022-09-21T06:26:10.968Z,5.23
2022-09-21T06:28:39.204Z,3.10
2022-09-21T06:31:07.549Z,3.13
2022-09-21T06:33:37.758Z,5.13
2022-09-21T06:36:07.855Z,4.33
2022-09-21T06:38:36.960Z,3.70
2022-09-21T06:41:06.302Z,5.87
2022-09-21T06:43:34.723Z,5.03
2022-09-21T06:46:04.016Z,4.83
2022-09-21T06:48:35.112Z,5.67
2022-09-21T06:51:07.294Z,4.67
2022-09-21T06:53:36.111Z,4.30
2022-09-21T06:56:06.858Z,5.27
2022-09-21T06:58:36.217Z,4.27
2022-09-21T07:01:09.662Z,4.77
2022-09-21T07:03:39.094Z,3.87
2022-09-21T07:06:11.722Z,4.63
2022-09-21T07:11:28.574Z,4.33
2022-09-21T07:13:58.442Z,4.90
2022-09-21T07:16:28.013Z,4.20
2022-09-21T07:18:57.019Z,6.23
2022-09-21T07:21:27.383Z,4.90
2022-09-21T07:23:55.633Z,5.90
2022-09-21T07:26:23.881Z,5.97
2022-09-21T07:28:52.128Z,6.33
2022-09-21T07:31:20.454Z,6.10
2022-09-21T07:33:48.720Z,5.73
2022-09-21T07:36:17.856Z,5.73
2022-09-21T07:38:47.456Z,5.43
2022-09-21T07:41:16.201Z,6.30
2022-09-21T07:43:44.535Z,5.77
2022-09-21T07:46:15.561Z,5.70
2022-09-21T07:48:44.169Z,5.83
2022-09-21T07:51:15.078Z,5.97
2022-09-21T07:53:46.709Z,5.50
2022-09-21T07:56:18.104Z,5.13
2022-09-21T07:59:02.922Z,4.50
2022-09-21T08:01:32.238Z,4.67
2022-09-21T08:04:01.280Z,4.80
2022-09-21T08:06:32.995Z,4.50
2022-09-21T08:09:03.935Z,4.53
2022-09-21T08:11:33.622Z,4.70
2022-09-21T08:14:04.273Z,4.60
2022-09-21T08:16:34.016Z,5.13
2022-09-21T08:19:03.159Z,4.63
2022-09-21T08:21:31.436Z,4.13
2022-09-21T08:23:59.783Z,3.90
2022-09-21T08:26:29.408Z,4.43
2022-09-21T08:28:58.961Z,4.97
2022-09-21T08:31:27.815Z,4.57
2022-09-21T08:33:57.303Z,4.50
2022-09-21T08:36:26.401Z,4.37
2022-09-21T08:38:56.653Z,4.33
2022-09-21T08:41:32.292Z,4.60
2022-09-21T08:44:05.913Z,4.50
2022-09-21T08:46:35.568Z,4.40
2022-09-21T08:49:08.414Z,4.30
2022-09-21T08:51:45.664Z,4.80
2022-09-21T08:54:20.799Z,4.20
2022-09-21T08:57:05.150Z,4.37
2022-09-21T08:59:35.627Z,4.50
2022-09-21T09:02:23.025Z,4.40
2022-09-21T09:05:01.436Z,4.30
2022-09-21T09:07:55.996Z,4.53
2022-09-21T09:10:38.457Z,4.40
2022-09-21T09:13:39.364Z,4.20
2022-09-21T09:16:17.126Z,4.60
2022-09-21T09:18:52.721Z,4.60
2022-09-21T09:21:31.407Z,4.47
2022-09-21T09:24:04.703Z,4.00
2022-09-21T09:26:42.684Z,4.40
2022-09-21T09:29:22.984Z,4.40
2022-09-21T09:31:55.546Z,4.60
2022-09-21T09:34:30.671Z,4.40
2022-09-21T09:37:02.069Z,4.13
2022-09-21T09:39:31.765Z,3.70
2022-09-21T09:42:32.984Z,3.10
2022-09-21T09:45:31.512Z,2.97
2022-09-21T09:48:16.635Z,3.00
2022-09-21T09:50:45.119Z,3.07
2022-09-21T09:53:18.078Z,3.13
2022-09-21T09:55:49.831Z,3.33
2022-09-21T09:58:21.467Z,3.20
2022-09-21T10:00:55.283Z,2.93
2022-09-21T10:03:25.943Z,2.90
2022-09-21T10:05:55.075Z,3.17
2022-09-21T10:08:46.492Z,2.70
2022-09-21T10:11:17.120Z,2.73
2022-09-21T10:13:48.496Z,2.37
2022-09-21T10:16:23.762Z,2.40
2022-09-21T10:18:56.275Z,2.20
2022-09-21T10:21:26.616Z,2.23
2022-09-21T10:24:00.193Z,2.27
2022-09-21T10:26:33.611Z,2.27
2022-09-21T10:29:03.706Z,2.33
2022-09-21T10:31:33.401Z,1.80
2022-09-21T10:34:14.411Z,2.00
2022-09-21T10:36:51.654Z,1.80
2022-09-21T10:39:27.426Z,2.23
2022-09-21T10:42:05.144Z,2.50
2022-09-21T10:44:42.506Z,2.43
2022-09-21T10:47:24.927Z,2.43
2022-09-21T10:49:55.708Z,1.93
2022-09-21T10:52:32.463Z,2.33
2022-09-21T10:55:01.054Z,2.20
2022-09-21T10:57:30.723Z,2.13
2022-09-21T10:59:59.795Z,2.03
2022-09-21T11:02:38.592Z,2.20
2022-09-21T11:05:16.450Z,2.10
2022-09-21T11:07:51.154Z,2.10
2022-09-21T11:10:30.846Z,1.13
2022-09-21T11:13:19.294Z,1.33
2022-09-21T11:15:56.228Z,1.70
2022-09-21T11:18:37.675Z,1.70
2022-09-21T11:21:16.358Z,1.43
2022-09-21T11:23:56.474Z,1.27
2022-09-21T11:26:30.691Z,1.90
2022-09-21T11:29:07.015Z,2.10
2022-09-21T11:31:53.893Z,1.80
2022-09-21T11:35:17.265Z,1.70
2022-09-21T11:38:04.326Z,1.80
2022-09-21T11:41:01.829Z,1.80
2022-09-21T11:43:52.407Z,1.40
2022-09-21T11:46:31.078Z,1.40
2022-09-21T11:49:19.667Z,1.47
2022-09-21T11:52:09.196Z,1.33
2022-09-21T11:55:06.147Z,1.30
2022-09-21T11:57:42.454Z,1.47
2022-09-21T12:00:17.007Z,1.40
2022-09-21T12:03:32.176Z,1.20
2022-09-21T12:06:17.608Z,1.37
2022-09-21T12:09:04.887Z,1.00
2022-09-21T12:11:43.123Z,0.93
2022-09-21T12:14:23.979Z,0.97
2022-09-21T12:17:06.152Z,1.00
2022-09-21T12:19:45.744Z,1.00
2022-09-21T12:22:19.619Z,0.80
2022-09-21T12:24:53.556Z,1.23
2022-09-21T12:27:30.678Z,0.97
2022-09-21T12:30:03.883Z,1.40
2022-09-21T12:32:49.456Z,1.23
2022-09-21T12:35:23.950Z,1.10
2022-09-21T12:37:59.746Z,1.17
2022-09-21T12:40:39.533Z,0.80
2022-09-21T12:43:23.038Z,0.70
2022-09-21T12:45:59.409Z,0.60
2022-09-21T12:48:36.508Z,0.80
2022-09-21T12:51:15.555Z,0.60
2022-09-21T12:53:50.762Z,0.80
2022-09-21T12:56:37.559Z,0.90
2022-09-21T12:59:24.582Z,0.53
2022-09-21T13:02:00.696Z,0.70
2022-09-21T13:04:53.403Z,0.80
2022-09-21T13:07:55.373Z,0.57
2022-09-21T13:10:39.641Z,0.70
2022-09-21T13:13:19.894Z,1.00
2022-09-21T13:15:50.062Z,0.97
2022-09-21T13:18:25.225Z,1.00
2022-09-21T13:20:55.604Z,0.73
2022-09-21T13:23:29.568Z,0.70
2022-09-21T13:26:05.699Z,1.10
2022-09-21T13:29:06.687Z,1.10
2022-09-21T13:31:57.643Z,0.80
2022-09-21T13:34:29.816Z,0.80
2022-09-21T13:37:35.110Z,0.70
2022-09-21T13:40:40.885Z,1.13
2022-09-21T13:43:21.567Z,1.23
2022-09-21T13:45:57.883Z,1.00
2022-09-21T13:48:34.552Z,3.10
2022-09-21T13:51:10.248Z,1.10
2022-09-21T13:53:42.172Z,1.33
2022-09-21T13:56:20.334Z,0.80
2022-09-21T13:58:53.183Z,0.60
2022-09-21T14:04:26.484Z,0.80
2022-09-21T14:06:57.086Z,0.60
2022-09-21T14:09:29.621Z,0.90
2022-09-21T14:12:02.746Z,0.50
2022-09-21T14:14:37.216Z,0.60
2022-09-21T14:17:33.281Z,0.67
2022-09-21T14:20:02.294Z,0.60
2022-09-21T14:22:44.120Z,0.50
2022-09-21T14:25:50.787Z,0.50
2022-09-21T14:28:23.494Z,0.60
2022-09-21T14:30:57.866Z,0.60
2022-09-21T14:33:34.005Z,0.80
2022-09-21T14:36:08.743Z,0.60
2022-09-21T14:38:51.677Z,0.70
2022-09-21T14:41:25.497Z,0.80
2022-09-21T14:43:56.650Z,0.60
2022-09-21T14:46:59.642Z,0.73
2022-09-21T14:49:52.237Z,0.70
2022-09-21T14:52:33.114Z,0.60
2022-09-21T14:55:15.770Z,0.60
2022-09-21T14:58:21.615Z,0.80
2022-09-21T15:00:50.292Z,0.47
2022-09-21T15:03:44.840Z,0.60
2022-09-21T15:06:41.336Z,0.70
2022-09-21T15:09:54.510Z,0.87
2022-09-21T15:12:30.040Z,1.00
2022-09-21T15:15:21.944Z,0.60
2022-09-21T15:17:58.623Z,1.50
2022-09-21T15:20:29.559Z,0.97
2022-09-21T15:23:00.920Z,0.70
2022-09-21T15:25:33.483Z,0.90
2022-09-21T15:28:02.215Z,1.00
2022-09-21T15:30:33.789Z,1.00
2022-09-21T15:33:03.811Z,0.90
2022-09-21T15:35:33.959Z,0.83
2022-09-21T15:38:03.781Z,1.10
2022-09-21T15:40:36.324Z,0.93
2022-09-21T15:43:09.318Z,1.00
2022-09-21T15:45:51.389Z,1.00
2022-09-21T15:48:20.661Z,1.10
2022-09-21T15:50:52.987Z,1.20
2022-09-21T15:53:27.408Z,1.03
2022-09-21T15:55:55.818Z,1.20
2022-09-21T15:58:37.121Z,1.30
2022-09-21T16:01:11.340Z,1.67
2022-09-21T16:03:40.722Z,1.80
2022-09-21T16:06:27.676Z,1.40
2022-09-21T16:08:57.441Z,1.70
2022-09-21T16:11:37.825Z,1.90
2022-09-21T16:14:31.025Z,2.20
2022-09-21T16:17:27.592Z,2.60
2022-09-21T16:20:17.306Z,2.33
2022-09-21T16:22:48.453Z,2.07
2022-09-21T16:25:32.701Z,3.07
2022-09-21T16:28:04.473Z,2.63
2022-09-21T16:30:48.881Z,2.60
2022-09-21T16:33:43.961Z,1.80
2022-09-21T16:36:42.611Z,2.00
2022-09-21T16:39:17.367Z,2.50
2022-09-21T16:42:00.159Z,2.13
2022-09-21T16:44:35.403Z,2.00
2022-09-21T16:47:05.188Z,2.23
2022-09-21T16:49:35.642Z,2.63
2022-09-21T16:52:04.482Z,1.83
2022-09-21T16:54:32.767Z,1.60
2022-09-21T16:57:03.940Z,2.10
2022-09-21T16:59:33.242Z,2.70
2022-09-21T17:02:04.226Z,2.20
2022-09-21T17:04:36.094Z,2.27
2022-09-21T17:07:06.076Z,2.13
2022-09-21T17:09:38.434Z,2.47
2022-09-21T17:12:11.568Z,2.80
2022-09-21T17:14:46.699Z,2.40
2022-09-21T17:17:20.714Z,2.50
2022-09-21T17:19:50.880Z,2.83
2022-09-21T17:22:19.700Z,3.57
2022-09-21T17:24:52.124Z,4.80
2022-09-21T17:27:26.665Z,4.63
2022-09-21T17:29:56.476Z,3.37
2022-09-21T17:32:25.791Z,3.33
2022-09-21T17:35:01.659Z,3.07
2022-09-21T17:37:30.014Z,3.07
2022-09-21T17:39:59.211Z,2.53
2022-09-21T17:42:29.680Z,2.70
2022-09-21T17:45:16.775Z,2.90
2022-09-21T17:47:45.543Z,3.50
2022-09-21T17:50:24.334Z,5.17
2022-09-21T17:53:11.203Z,5.20
2022-09-21T17:55:40.565Z,5.10
2022-09-21T17:58:39.854Z,5.60
2022-09-21T18:01:15.585Z,4.40
2022-09-21T18:03:44.657Z,4.20
2022-09-21T18:06:14.527Z,4.13
2022-09-21T18:08:43.423Z,4.10
2022-09-21T18:11:31.807Z,4.33
2022-09-21T18:14:10.382Z,4.90
2022-09-21T18:16:54.266Z,6.30
2022-09-21T18:19:38.177Z,6.63
2022-09-21T18:22:18.454Z,5.97
2022-09-21T18:24:47.698Z,4.67
2022-09-21T18:27:18.655Z,4.80
2022-09-21T18:29:49.115Z,4.77
2022-09-21T18:32:43.799Z,5.73
2022-09-21T18:35:44.945Z,5.40
2022-09-21T18:38:25.688Z,7.43
2022-09-21T18:41:13.906Z,8.30
2022-09-21T18:43:59.169Z,7.73
2022-09-21T18:46:38.285Z,7.13
2022-09-21T18:49:17.238Z,6.30
2022-09-21T18:51:51.967Z,5.93
2022-09-21T18:54:24.092Z,6.40
2022-09-21T18:56:52.988Z,5.37
2022-09-21T18:59:22.158Z,5.13
2022-09-21T19:01:53.131Z,6.27
2022-09-21T19:04:22.312Z,6.40
2022-09-21T19:06:59.919Z,6.60
2022-09-21T19:09:44.546Z,4.90
2022-09-21T19:12:23.459Z,4.07
2022-09-21T19:15:03.798Z,4.47
2022-09-21T19:17:59.331Z,4.60
2022-09-21T19:20:44.504Z,3.37
2022-09-21T19:23:30.226Z,3.63
2022-09-21T19:26:05.862Z,3.30
2022-09-21T19:29:02.861Z,3.43
2022-09-21T19:31:33.084Z,3.17
2022-09-21T19:34:15.440Z,3.13
2022-09-21T19:36:44.973Z,3.20
2022-09-21T19:39:13.877Z,3.47
2022-09-21T19:41:59.436Z,3.33
2022-09-21T19:44:46.028Z,3.40
2022-09-21T19:47:25.767Z,2.83
2022-09-21T19:50:00.151Z,2.87
2022-09-21T19:52:32.901Z,2.80
2022-09-21T19:55:19.481Z,2.50
2022-09-21T19:58:02.631Z,2.83
2022-09-21T20:00:32.567Z,2.90
2022-09-21T20:03:07.268Z,3.03
2022-09-21T20:05:48.575Z,2.70
2022-09-21T20:08:24.009Z,3.20
2022-09-21T20:11:10.053Z,3.50
2022-09-21T20:13:57.779Z,2.93
2022-09-21T20:16:38.899Z,3.43
2022-09-21T20:19:20.968Z,3.33
2022-09-21T20:22:00.453Z,3.10
2022-09-21T20:24:34.738Z,3.27
2022-09-21T20:27:07.427Z,3.93
2022-09-21T20:29:35.812Z,3.20
2022-09-21T20:32:04.151Z,2.80
2022-09-21T20:34:32.785Z,2.73
2022-09-21T20:37:02.359Z,3.30
2022-09-21T20:39:30.633Z,2.83
2022-09-21T20:41:59.603Z,2.50
2022-09-21T20:44:27.838Z,2.47
2022-09-21T20:46:56.117Z,3.03
2022-09-21T20:49:24.380Z,2.60
2022-09-21T20:51:52.661Z,2.93
2022-09-21T20:54:23.230Z,2.80
2022-09-21T20:56:51.458Z,2.80
2022-09-21T20:59:19.717Z,5.43
2022-09-21T21:01:48.097Z,4.20
2022-09-21T21:04:16.646Z,3.87
2022-09-21T21:06:45.411Z,3.30
2022-09-21T21:09:13.663Z,4.17
2022-09-21T21:11:43.257Z,3.07
2022-09-21T21:14:11.509Z,3.17
2022-09-21T21:16:39.814Z,8.63
2022-09-21T21:19:08.155Z,4.70
2022-09-21T21:21:36.668Z,3.50
2022-09-21T21:24:22.753Z,2.43
2022-09-21T21:27:02.614Z,2.40
2022-09-21T21:29:32.015Z,2.47
2022-09-21T21:32:00.659Z,2.93
2022-09-21T21:34:29.222Z,2.97
2022-09-21T21:36:57.580Z,2.60
2022-09-21T21:39:25.895Z,2.23
2022-09-21T21:41:55.546Z,2.07
2022-09-21T21:44:23.934Z,1.70
2022-09-21T21:46:53.355Z,1.80
2022-09-21T21:49:21.903Z,2.07
2022-09-21T21:51:50.460Z,2.20
2022-09-21T21:54:19.463Z,2.40
2022-09-21T21:56:47.865Z,4.30
2022-09-21T21:59:18.128Z,2.90
2022-09-21T22:01:46.855Z,2.60
2022-09-21T22:04:15.662Z,2.30
2022-09-21T22:06:44.345Z,1.90
2022-09-21T22:09:14.743Z,2.40
2022-09-21T22:11:43.106Z,2.07
2022-09-21T22:14:11.667Z,1.80
2022-09-21T22:16:41.412Z,2.03
2022-09-21T22:19:10.222Z,2.03
2022-09-21T22:21:42.449Z,2.07
2022-09-21T22:24:11.366Z,1.93
2022-09-21T22:26:42.044Z,1.87
2022-09-21T22:29:13.162Z,2.13
2022-09-21T22:31:45.283Z,2.37
2022-09-21T22:34:14.770Z,2.20
2022-09-21T22:36:44.357Z,2.50
2022-09-21T22:39:13.623Z,2.67
2022-09-21T22:41:43.446Z,2.73
2022-09-21T22:44:12.287Z,2.50
2022-09-21T22:46:42.233Z,2.57
2022-09-21T22:49:10.568Z,2.40
2022-09-21T22:51:39.011Z,2.60
2022-09-21T22:54:07.750Z,1.80
2022-09-21T22:56:36.491Z,2.50
2022-09-21T22:59:06.529Z,2.13
2022-09-21T23:01:37.513Z,1.93
2022-09-21T23:04:09.905Z,2.30
2022-09-21T23:06:41.390Z,2.23
2022-09-21T23:09:14.042Z,2.10
2022-09-21T23:11:47.400Z,1.97
2022-09-21T23:14:16.745Z,2.33
2022-09-21T23:16:45.277Z,1.83
2022-09-21T23:19:16.419Z,1.90
2022-09-21T23:21:46.911Z,2.27
2022-09-21T23:24:15.383Z,1.97
2022-09-21T23:26:45.609Z,1.80
2022-09-21T23:29:16.571Z,1.90
2022-09-21T23:31:46.371Z,1.80
2022-09-21T23:34:17.323Z,2.10
2022-09-21T23:36:46.676Z,2.10
2022-09-21T23:39:16.609Z,2.17
2022-09-21T23:41:45.162Z,2.23
2022-09-21T23:44:13.697Z,1.63
2022-09-21T23:46:42.682Z,2.00
2022-09-21T23:49:11.318Z,1.80
2022-09-21T23:51:41.111Z,1.47
2022-09-21T23:54:09.825Z,1.80
2022-09-21T23:56:38.275Z,1.53
2022-09-21T23:59:06.569Z,1.70
